createdAt,value
2018-11-21T00:00:10.675Z,19.40
2018-11-21T00:01:10.628Z,20.00
2018-11-21T00:02:10.613Z,19.80
2018-11-21T00:03:10.602Z,19.90
2018-11-21T00:04:10.592Z,19.60
2018-11-21T00:05:10.581Z,19.10
2018-11-21T00:06:10.854Z,20.20
2018-11-21T00:07:10.557Z,20.00
2018-11-21T00:08:10.547Z,20.20
2018-11-21T00:09:10.536Z,18.30
2018-11-21T00:10:10.530Z,20.10
2018-11-21T00:11:10.514Z,19.00
2018-11-21T00:12:10.538Z,20.00
2018-11-21T00:13:10.495Z,20.30
2018-11-21T00:14:10.483Z,18.80
2018-11-21T00:15:10.472Z,20.40
2018-11-21T00:16:10.461Z,20.80
2018-11-21T00:17:10.453Z,19.80
2018-11-21T00:18:10.476Z,20.30
2018-11-21T00:19:10.429Z,20.80
2018-11-21T00:20:10.417Z,20.10
2018-11-21T00:21:10.407Z,21.10
2018-11-21T00:22:10.395Z,20.30
2018-11-21T00:23:10.385Z,20.40
2018-11-21T00:24:10.408Z,19.70
2018-11-21T00:25:10.364Z,20.40
2018-11-21T00:26:10.354Z,21.10
2018-11-21T00:27:10.375Z,21.20
2018-11-21T00:28:10.332Z,20.60
2018-11-21T00:29:10.322Z,22.00
2018-11-21T00:30:10.311Z,20.70
2018-11-21T00:31:10.300Z,20.10
2018-11-21T00:32:10.288Z,20.80
2018-11-21T00:33:10.308Z,20.60
2018-11-21T00:34:10.302Z,21.30
2018-11-21T00:35:10.255Z,20.90
2018-11-21T00:36:10.245Z,21.90
2018-11-21T00:37:10.232Z,21.20
2018-11-21T00:38:10.224Z,21.20
2018-11-21T00:39:10.212Z,20.90
2018-11-21T00:40:10.235Z,21.30
2018-11-21T00:41:10.190Z,21.40
2018-11-21T00:42:10.178Z,21.70
2018-11-21T00:43:10.167Z,20.50
2018-11-21T00:44:10.156Z,20.30
2018-11-21T00:45:10.146Z,21.20
2018-11-21T00:46:10.170Z,21.70
2018-11-21T00:47:10.128Z,20.40
2018-11-21T00:48:10.113Z,21.30
2018-11-21T00:49:10.182Z,20.90
2018-11-21T00:50:10.092Z,20.50
2018-11-21T00:51:10.080Z,22.00
2018-11-21T00:52:10.069Z,21.40
2018-11-21T00:53:10.059Z,20.40
2018-11-21T00:54:10.048Z,21.50
2018-11-21T00:55:10.080Z,22.00
2018-11-21T00:56:10.031Z,20.60
2018-11-21T00:57:10.014Z,21.10
2018-11-21T00:58:10.005Z,19.90
2018-11-21T00:59:09.992Z,21.10
2018-11-21T01:00:09.983Z,21.60
2018-11-21T01:01:10.006Z,20.70
2018-11-21T01:02:09.961Z,21.20
2018-11-21T01:03:09.950Z,20.80
2018-11-21T01:04:09.938Z,20.90
2018-11-21T01:05:09.928Z,20.90
2018-11-21T01:06:09.918Z,21.10
2018-11-21T01:07:09.938Z,20.80
2018-11-21T01:08:09.932Z,21.10
2018-11-21T01:09:09.917Z,21.00
2018-11-21T01:10:09.873Z,20.80
2018-11-21T01:11:09.862Z,21.10
2018-11-21T01:12:09.851Z,20.90
2018-11-21T01:13:10.016Z,20.60
2018-11-21T01:14:09.837Z,20.30
2018-11-21T01:15:09.819Z,21.40
2018-11-21T01:16:09.808Z,21.10
2018-11-21T01:17:09.831Z,21.10
2018-11-21T01:18:09.788Z,21.50
2018-11-21T01:19:09.776Z,20.50
2018-11-21T01:20:09.764Z,21.60
2018-11-21T01:21:09.753Z,21.30
2018-11-21T01:22:09.742Z,21.50
2018-11-21T01:23:09.769Z,21.60
2018-11-21T01:24:09.721Z,21.60
2018-11-21T01:25:09.710Z,21.30
2018-11-21T01:26:09.699Z,21.90
2018-11-21T01:27:09.690Z,22.10
2018-11-21T01:28:09.677Z,21.90
2018-11-21T01:29:09.700Z,22.00
2018-11-21T01:30:09.656Z,21.20
2018-11-21T01:31:09.643Z,21.40
2018-11-21T01:32:09.633Z,21.50
2018-11-21T01:33:09.910Z,22.30
2018-11-21T01:34:09.614Z,22.30
2018-11-21T01:35:09.634Z,21.20
2018-11-21T01:36:09.591Z,22.40
2018-11-21T01:37:09.578Z,22.70
2018-11-21T01:38:09.568Z,21.90
2018-11-21T01:39:09.557Z,21.60
2018-11-21T01:40:09.546Z,21.00
2018-11-21T01:41:09.579Z,21.00
2018-11-21T01:42:09.524Z,21.60
2018-11-21T01:43:09.514Z,22.40
2018-11-21T01:44:09.501Z,21.20
2018-11-21T01:45:09.490Z,21.50
2018-11-21T01:46:09.480Z,21.70
2018-11-21T01:47:09.500Z,20.90
2018-11-21T01:48:09.460Z,21.70
2018-11-21T01:49:09.447Z,22.20
2018-11-21T01:50:09.437Z,22.10
2018-11-21T01:51:09.425Z,21.50
2018-11-21T01:52:09.447Z,21.40
2018-11-21T01:53:09.405Z,22.20
2018-11-21T01:54:09.404Z,21.10
2018-11-21T01:55:09.382Z,20.90
2018-11-21T01:56:09.402Z,21.80
2018-11-21T01:57:09.394Z,21.50
2018-11-21T01:58:09.351Z,21.80
2018-11-21T01:59:09.342Z,22.00
2018-11-21T02:00:09.330Z,21.60
2018-11-21T02:01:09.317Z,22.70
2018-11-21T02:02:09.312Z,22.90
2018-11-21T02:03:09.330Z,22.90
2018-11-21T02:04:09.285Z,22.20
2018-11-21T02:05:09.272Z,21.80
2018-11-21T02:06:09.261Z,22.00
2018-11-21T02:07:09.252Z,23.10
2018-11-21T02:08:09.239Z,22.90
2018-11-21T02:09:09.267Z,22.70
2018-11-21T02:10:09.217Z,22.20
2018-11-21T02:11:09.210Z,22.70
2018-11-21T02:12:09.196Z,21.50
2018-11-21T02:13:09.187Z,22.00
2018-11-21T02:14:09.174Z,22.40
2018-11-21T02:15:09.206Z,22.60
2018-11-21T02:16:09.151Z,21.00
2018-11-21T02:17:09.142Z,21.90
2018-11-21T02:18:09.132Z,21.80
2018-11-21T02:19:09.119Z,21.60
2018-11-21T02:20:09.108Z,22.20
2018-11-21T02:21:09.134Z,21.30
2018-11-21T02:22:09.087Z,22.00
2018-11-21T02:23:09.077Z,22.90
2018-11-21T02:24:09.069Z,21.10
2018-11-21T02:25:09.068Z,22.80
2018-11-21T02:26:09.046Z,22.70
2018-11-21T02:27:09.068Z,22.30
2018-11-21T02:28:09.023Z,21.50
2018-11-21T02:29:09.011Z,22.60
2018-11-21T02:30:09.010Z,22.10
2018-11-21T02:31:08.991Z,22.80
2018-11-21T02:32:08.977Z,22.60
2018-11-21T02:33:09.014Z,22.10
2018-11-21T02:34:08.956Z,22.40
2018-11-21T02:35:08.948Z,21.90
2018-11-21T02:36:08.935Z,22.20
2018-11-21T02:37:08.923Z,22.60
2018-11-21T02:38:08.914Z,22.60
2018-11-21T02:39:08.942Z,22.30
2018-11-21T02:40:08.891Z,22.20
2018-11-21T02:41:08.881Z,22.40
2018-11-21T02:42:08.870Z,22.20
2018-11-21T02:43:08.859Z,20.60
2018-11-21T02:44:08.847Z,22.50
2018-11-21T02:45:09.014Z,22.50
2018-11-21T02:46:08.844Z,22.90
2018-11-21T02:47:08.814Z,23.10
2018-11-21T02:48:08.805Z,22.40
2018-11-21T02:49:08.794Z,22.00
2018-11-21T02:50:08.782Z,21.70
2018-11-21T02:51:08.813Z,21.80
2018-11-21T02:52:08.759Z,21.90
2018-11-21T02:53:08.749Z,22.10
2018-11-21T02:54:08.739Z,20.60
2018-11-21T02:55:08.731Z,21.60
2018-11-21T02:56:08.717Z,22.60
2018-11-21T02:57:08.744Z,22.30
2018-11-21T02:58:08.693Z,22.40
2018-11-21T02:59:08.724Z,21.10
2018-11-21T03:00:08.673Z,22.30
2018-11-21T03:01:08.661Z,23.10
2018-11-21T03:02:08.650Z,23.00
2018-11-21T03:03:08.642Z,23.10
2018-11-21T03:04:08.628Z,22.90
2018-11-21T03:05:08.670Z,23.10
2018-11-21T03:06:08.606Z,23.70
2018-11-21T03:07:08.595Z,22.60
2018-11-21T03:08:08.596Z,23.70
2018-11-21T03:09:08.575Z,22.70
2018-11-21T03:10:08.563Z,23.10
2018-11-21T03:11:08.597Z,22.80
2018-11-21T03:12:08.542Z,24.10
2018-11-21T03:13:08.532Z,23.90
2018-11-21T03:14:08.520Z,22.80
2018-11-21T03:15:08.509Z,23.40
2018-11-21T03:16:08.498Z,22.60
2018-11-21T03:17:08.531Z,23.00
2018-11-21T03:18:08.522Z,23.00
2018-11-21T03:19:08.465Z,24.70
2018-11-21T03:20:08.457Z,23.50
2018-11-21T03:21:08.442Z,22.40
2018-11-21T03:22:08.431Z,21.90
2018-11-21T03:23:08.423Z,23.60
2018-11-21T03:24:08.464Z,22.90
2018-11-21T03:25:08.399Z,23.50
2018-11-21T03:26:08.388Z,23.00
2018-11-21T03:27:08.376Z,23.50
2018-11-21T03:28:08.367Z,22.70
2018-11-21T03:29:08.357Z,24.10
2018-11-21T03:30:08.396Z,23.10
2018-11-21T03:31:08.337Z,25.10
2018-11-21T03:32:08.324Z,24.00
2018-11-21T03:33:08.313Z,23.80
2018-11-21T03:34:08.303Z,23.50
2018-11-21T03:35:08.290Z,23.30
2018-11-21T03:36:08.332Z,24.40
2018-11-21T03:37:08.270Z,24.10
2018-11-21T03:38:08.261Z,25.00
2018-11-21T03:39:08.247Z,24.00
2018-11-21T03:40:08.236Z,24.60
2018-11-21T03:41:08.226Z,24.10
2018-11-21T03:42:08.258Z,24.30
2018-11-21T03:43:08.203Z,25.60
2018-11-21T03:44:08.192Z,24.40
2018-11-21T03:45:08.189Z,24.30
2018-11-21T03:46:08.170Z,25.60
2018-11-21T03:47:08.206Z,24.70
2018-11-21T03:48:08.150Z,24.50
2018-11-21T03:49:08.138Z,23.90
2018-11-21T03:50:08.127Z,24.40
2018-11-21T03:51:08.117Z,24.20
2018-11-21T03:52:08.104Z,24.20
2018-11-21T03:53:08.141Z,23.80
2018-11-21T03:54:08.087Z,23.90
2018-11-21T03:55:08.079Z,24.40
2018-11-21T03:56:08.061Z,23.70
2018-11-21T03:57:08.053Z,24.50
2018-11-21T03:58:08.039Z,23.60
2018-11-21T03:59:08.075Z,23.70
2018-11-21T04:00:08.019Z,23.30
2018-11-21T04:01:08.054Z,23.70
2018-11-21T04:02:07.996Z,23.60
2018-11-21T04:03:07.985Z,23.60
2018-11-21T04:04:07.976Z,24.00
2018-11-21T04:05:07.965Z,24.30
2018-11-21T04:06:07.954Z,23.40
2018-11-21T04:07:07.990Z,23.40
2018-11-21T04:08:07.981Z,22.80
2018-11-21T04:09:07.920Z,24.00
2018-11-21T04:10:07.910Z,23.60
2018-11-21T04:11:07.897Z,24.80
2018-11-21T04:12:07.886Z,24.90
2018-11-21T04:13:07.877Z,23.30
2018-11-21T04:14:07.912Z,23.80
2018-11-21T04:15:07.855Z,23.80
2018-11-21T04:16:07.844Z,24.60
2018-11-21T04:17:07.836Z,24.50
2018-11-21T04:18:07.867Z,24.00
2018-11-21T04:19:07.811Z,24.10
2018-11-21T04:20:07.804Z,23.50
2018-11-21T04:21:07.789Z,23.70
2018-11-21T04:22:07.829Z,23.70
2018-11-21T04:23:07.767Z,24.30
2018-11-21T04:24:07.756Z,24.30
2018-11-21T04:25:07.753Z,24.20
2018-11-21T04:26:07.748Z,23.80
2018-11-21T04:27:07.724Z,24.10
2018-11-21T04:28:08.009Z,24.60
2018-11-21T04:29:07.701Z,23.70
2018-11-21T04:30:07.692Z,24.00
2018-11-21T04:31:07.679Z,23.00
2018-11-21T04:32:07.667Z,25.10
2018-11-21T04:33:07.660Z,25.50
2018-11-21T04:34:07.693Z,24.40
2018-11-21T04:35:07.634Z,24.50
2018-11-21T04:36:07.624Z,24.80
2018-11-21T04:37:07.615Z,23.50
2018-11-21T04:38:07.679Z,24.30
2018-11-21T04:39:07.594Z,24.40
2018-11-21T04:40:07.627Z,25.90
2018-11-21T04:41:07.576Z,24.20
2018-11-21T04:42:08.510Z,24.70
2018-11-21T04:43:07.547Z,23.50
2018-11-21T04:44:07.536Z,24.50
2018-11-21T04:45:07.526Z,24.90
2018-11-21T04:46:07.565Z,24.30
2018-11-21T04:47:07.504Z,24.60
2018-11-21T04:48:07.494Z,24.10
2018-11-21T04:49:07.483Z,24.10
2018-11-21T04:50:07.473Z,23.90
2018-11-21T04:51:07.462Z,24.40
2018-11-21T04:52:07.496Z,25.10
2018-11-21T04:53:07.439Z,24.30
2018-11-21T04:54:07.431Z,24.90
2018-11-21T04:55:07.417Z,24.10
2018-11-21T04:56:07.452Z,24.00
2018-11-21T04:57:07.397Z,25.60
2018-11-21T04:58:07.387Z,25.80
2018-11-21T04:59:07.420Z,24.40
2018-11-21T05:00:07.367Z,26.00
2018-11-21T05:01:07.398Z,25.40
2018-11-21T05:02:07.341Z,25.70
2018-11-21T05:03:07.331Z,25.50
2018-11-21T05:04:07.321Z,25.30
2018-11-21T05:05:07.313Z,25.10
2018-11-21T05:06:07.298Z,24.90
2018-11-21T05:07:07.346Z,26.20
2018-11-21T05:08:07.277Z,26.50
2018-11-21T05:09:07.265Z,25.70
2018-11-21T05:10:07.254Z,24.50
2018-11-21T05:11:07.243Z,25.00
2018-11-21T05:12:07.231Z,24.60
2018-11-21T05:13:07.272Z,24.40
2018-11-21T05:14:07.216Z,25.20
2018-11-21T05:15:07.201Z,26.00
2018-11-21T05:16:07.190Z,25.10
2018-11-21T05:17:07.225Z,25.60
2018-11-21T05:18:07.217Z,26.40
2018-11-21T05:19:07.157Z,25.20
2018-11-21T05:20:07.145Z,24.80
2018-11-21T05:21:07.133Z,25.70
2018-11-21T05:22:07.123Z,25.00
2018-11-21T05:23:07.112Z,24.70
2018-11-21T05:24:07.147Z,24.50
2018-11-21T05:25:07.094Z,23.80
2018-11-21T05:26:07.082Z,24.40
2018-11-21T05:27:07.069Z,25.70
2018-11-21T05:28:07.057Z,25.20
2018-11-21T05:29:07.047Z,25.90
2018-11-21T05:30:07.091Z,25.70
2018-11-21T05:31:07.029Z,25.40
2018-11-21T05:32:07.014Z,25.80
2018-11-21T05:33:07.003Z,26.20
2018-11-21T05:34:07.043Z,25.60
2018-11-21T05:35:06.981Z,26.10
2018-11-21T05:36:06.971Z,26.30
2018-11-21T05:37:06.960Z,26.10
2018-11-21T05:38:06.949Z,24.40
2018-11-21T05:39:06.937Z,25.20
2018-11-21T05:40:07.000Z,26.00
2018-11-21T05:41:06.916Z,25.70
2018-11-21T05:42:06.908Z,26.10
2018-11-21T05:43:06.892Z,25.90
2018-11-21T05:44:06.883Z,26.50
2018-11-21T05:45:06.917Z,25.60
2018-11-21T05:46:06.862Z,27.10
2018-11-21T05:47:06.850Z,25.60
2018-11-21T05:48:06.840Z,25.00
2018-11-21T05:49:06.830Z,25.10
2018-11-21T05:50:06.817Z,25.90
2018-11-21T05:51:07.001Z,24.30
2018-11-21T05:52:06.797Z,24.10
2018-11-21T05:53:06.785Z,25.40
2018-11-21T05:54:06.774Z,25.30
2018-11-21T05:55:06.765Z,24.60
2018-11-21T05:56:06.755Z,24.30
2018-11-21T05:57:06.786Z,24.60
2018-11-21T05:58:06.730Z,24.80
2018-11-21T05:59:06.769Z,24.50
2018-11-21T06:00:06.709Z,25.40
2018-11-21T06:01:06.697Z,25.90
2018-11-21T06:02:06.693Z,28.40
2018-11-21T06:03:06.682Z,29.80
2018-11-21T06:04:06.666Z,29.70
2018-11-21T06:05:06.702Z,29.20
2018-11-21T06:06:09.925Z,30.50
2018-11-21T06:07:06.636Z,29.50
2018-11-21T06:08:06.626Z,30.00
2018-11-21T06:09:06.614Z,29.10
2018-11-21T06:10:06.600Z,28.50
2018-11-21T06:11:06.647Z,29.20
2018-11-21T06:12:06.578Z,29.70
2018-11-21T06:13:06.618Z,29.60
2018-11-21T06:14:06.568Z,28.30
2018-11-21T06:15:06.599Z,29.70
2018-11-21T06:16:06.540Z,29.00
2018-11-21T06:17:06.570Z,29.40
2018-11-21T06:18:06.524Z,30.30
2018-11-21T06:19:06.504Z,29.30
2018-11-21T06:20:06.493Z,29.90
2018-11-21T06:21:06.481Z,31.50
2018-11-21T06:22:06.471Z,28.80
2018-11-21T06:23:06.507Z,29.30
2018-11-21T06:24:06.448Z,29.50
2018-11-21T06:25:06.444Z,28.80
2018-11-21T06:26:06.475Z,28.50
2018-11-21T06:27:06.417Z,29.00
2018-11-21T06:28:06.406Z,28.40
2018-11-21T06:29:06.396Z,28.30
2018-11-21T06:30:06.383Z,27.60
2018-11-21T06:31:06.401Z,27.40
2018-11-21T06:32:06.404Z,28.20
2018-11-21T06:33:06.360Z,27.90
2018-11-21T06:34:06.389Z,27.10
2018-11-21T06:35:06.331Z,28.70
2018-11-21T06:36:06.318Z,28.00
2018-11-21T06:37:06.329Z,28.90
2018-11-21T06:38:06.304Z,29.40
2018-11-21T06:39:06.289Z,28.90
2018-11-21T06:40:06.332Z,28.80
2018-11-21T06:41:06.267Z,29.30
2018-11-21T06:42:06.252Z,28.90
2018-11-21T06:43:06.242Z,28.00
2018-11-21T06:44:06.231Z,28.60
2018-11-21T06:45:06.222Z,29.60
2018-11-21T06:46:06.253Z,28.50
2018-11-21T06:47:06.198Z,28.00
2018-11-21T06:48:06.185Z,26.80
2018-11-21T06:49:06.177Z,27.90
2018-11-21T06:50:06.184Z,27.60
2018-11-21T06:51:06.181Z,27.20
2018-11-21T06:52:06.230Z,29.00
2018-11-21T06:53:06.133Z,29.20
2018-11-21T06:54:06.123Z,27.80
2018-11-21T06:55:06.113Z,27.30
2018-11-21T06:56:06.100Z,27.50
2018-11-21T06:57:06.148Z,29.60
2018-11-21T06:58:06.169Z,27.80
2018-11-21T06:59:06.085Z,28.00
2018-11-21T07:00:06.068Z,29.20
2018-11-21T07:01:06.123Z,28.20
2018-11-21T07:02:06.057Z,28.00
2018-11-21T07:03:06.053Z,29.30
2018-11-21T07:04:06.070Z,29.00
2018-11-21T07:05:06.006Z,29.30
2018-11-21T07:06:06.016Z,29.60
2018-11-21T07:07:05.981Z,28.90
2018-11-21T07:08:05.972Z,29.40
2018-11-21T07:09:06.020Z,28.70
2018-11-21T07:10:06.008Z,30.70
2018-11-21T07:11:05.943Z,29.30
2018-11-21T07:12:05.944Z,26.10
2018-11-21T07:13:11.005Z,26.20
2018-11-21T07:14:07.202Z,25.90
2018-11-21T07:15:05.908Z,25.80
2018-11-21T07:16:05.953Z,26.30
2018-11-21T07:17:05.911Z,25.90
2018-11-21T07:18:05.919Z,25.50
2018-11-21T07:19:05.856Z,24.80
2018-11-21T07:20:05.842Z,27.10
2018-11-21T07:21:05.827Z,25.30
2018-11-21T07:22:05.875Z,25.30
2018-11-21T07:23:05.808Z,24.80
2018-11-21T07:24:05.813Z,25.20
2018-11-21T07:25:05.843Z,24.10
2018-11-21T07:26:05.838Z,24.50
2018-11-21T07:27:05.790Z,25.30
2018-11-21T07:28:05.802Z,24.30
2018-11-21T07:29:05.753Z,24.20
2018-11-21T07:30:05.740Z,26.20
2018-11-21T07:31:05.739Z,25.90
2018-11-21T07:32:05.760Z,24.70
2018-11-21T07:33:05.753Z,24.20
2018-11-21T07:34:05.827Z,26.10
2018-11-21T07:35:05.714Z,24.00
2018-11-21T07:36:05.719Z,24.80
2018-11-21T07:37:05.688Z,24.40
2018-11-21T07:38:05.652Z,25.30
2018-11-21T07:39:05.632Z,24.00
2018-11-21T07:40:05.668Z,23.90
2018-11-21T07:41:05.613Z,24.50
2018-11-21T07:42:05.601Z,24.90
2018-11-21T07:43:05.594Z,24.50
2018-11-21T07:44:05.582Z,24.90
2018-11-21T07:45:05.577Z,23.80
2018-11-21T07:46:05.855Z,26.20
2018-11-21T07:47:05.621Z,25.40
2018-11-21T07:48:05.549Z,26.50
2018-11-21T07:49:05.525Z,25.70
2018-11-21T07:50:05.518Z,25.50
2018-11-21T07:51:05.502Z,25.40
2018-11-21T07:52:05.565Z,26.20
2018-11-21T07:53:05.481Z,26.10
2018-11-21T07:54:05.534Z,26.70
2018-11-21T07:55:05.476Z,25.90
2018-11-21T07:56:05.453Z,25.50
2018-11-21T07:57:05.493Z,24.50
2018-11-21T07:58:05.492Z,25.50
2018-11-21T07:59:05.417Z,25.80
2018-11-21T08:00:05.465Z,26.00
2018-11-21T08:01:05.410Z,25.70
2018-11-21T08:02:05.389Z,25.40
2018-11-21T08:03:05.382Z,26.10
2018-11-21T08:04:05.365Z,25.80
2018-11-21T08:05:05.348Z,26.40
2018-11-21T08:06:05.395Z,25.80
2018-11-21T08:07:05.331Z,24.60
2018-11-21T08:08:05.325Z,26.10
2018-11-21T08:09:05.314Z,26.90
2018-11-21T08:10:05.304Z,27.40
2018-11-21T08:11:05.290Z,26.80
2018-11-21T08:12:05.322Z,26.20
2018-11-21T08:13:05.267Z,25.90
2018-11-21T08:14:05.256Z,26.50
2018-11-21T08:15:05.249Z,26.30
2018-11-21T08:16:05.238Z,25.90
2018-11-21T08:17:05.282Z,25.20
2018-11-21T08:18:05.259Z,25.40
2018-11-21T08:19:05.200Z,26.50
2018-11-21T08:20:05.245Z,30.60
2018-11-21T08:21:05.176Z,29.50
2018-11-21T08:22:05.169Z,29.60
2018-11-21T08:23:05.283Z,29.00
2018-11-21T08:24:05.151Z,29.40
2018-11-21T08:25:05.136Z,29.10
2018-11-21T08:26:05.133Z,30.00
2018-11-21T08:27:05.132Z,28.70
2018-11-21T08:28:05.148Z,28.60
2018-11-21T08:29:05.144Z,30.40
2018-11-21T08:30:05.083Z,30.80
2018-11-21T08:31:05.072Z,32.70
2018-11-21T08:32:05.061Z,32.70
2018-11-21T08:33:05.053Z,33.30
2018-11-21T08:34:05.050Z,32.40
2018-11-21T08:35:05.072Z,32.60
2018-11-21T08:36:05.027Z,32.60
2018-11-21T08:37:05.004Z,33.30
2018-11-21T08:38:04.991Z,30.00
2018-11-21T08:39:04.986Z,30.80
2018-11-21T08:40:04.972Z,31.10
2018-11-21T08:41:05.006Z,29.00
2018-11-21T08:42:04.949Z,28.80
2018-11-21T08:43:04.955Z,29.20
2018-11-21T08:44:04.936Z,28.70
2018-11-21T08:45:04.937Z,29.50
2018-11-21T08:46:04.909Z,27.30
2018-11-21T08:47:04.944Z,28.00
2018-11-21T08:48:04.889Z,30.00
2018-11-21T08:49:04.876Z,29.40
2018-11-21T08:50:04.863Z,28.60
2018-11-21T08:51:04.895Z,29.50
2018-11-21T08:52:04.839Z,29.40
2018-11-21T08:53:04.904Z,28.10
2018-11-21T08:54:04.833Z,29.30
2018-11-21T08:55:08.917Z,28.40
2018-11-21T08:56:04.869Z,28.20
2018-11-21T08:57:04.790Z,28.90
2018-11-21T08:58:04.775Z,26.70
2018-11-21T08:59:04.821Z,28.30
2018-11-21T09:00:04.811Z,29.20
2018-11-21T09:01:04.794Z,28.20
2018-11-21T09:02:04.798Z,28.70
2018-11-21T09:03:04.719Z,29.60
2018-11-21T09:04:04.723Z,29.00
2018-11-21T09:05:04.718Z,29.90
2018-11-21T09:06:04.742Z,28.00
2018-11-21T09:07:04.683Z,27.50
2018-11-21T09:08:04.672Z,28.90
2018-11-21T09:09:04.715Z,28.50
2018-11-21T09:10:04.649Z,28.20
2018-11-21T09:11:04.687Z,28.90
2018-11-21T09:12:08.685Z,28.00
2018-11-21T09:13:04.618Z,29.90
2018-11-21T09:14:04.603Z,30.00
2018-11-21T09:15:04.597Z,29.40
2018-11-21T09:16:04.602Z,30.00
2018-11-21T09:17:04.622Z,30.70
2018-11-21T09:18:04.578Z,30.40
2018-11-21T09:19:04.600Z,29.10
2018-11-21T09:20:04.541Z,29.20
2018-11-21T09:21:04.534Z,29.50
2018-11-21T09:22:04.522Z,30.60
2018-11-21T09:23:04.796Z,27.70
2018-11-21T09:24:04.499Z,29.20
2018-11-21T09:25:04.483Z,28.60
2018-11-21T09:26:04.478Z,28.60
2018-11-21T09:27:04.465Z,28.70
2018-11-21T09:28:04.451Z,27.70
2018-11-21T09:29:04.501Z,29.40
2018-11-21T09:30:04.437Z,28.80
2018-11-21T09:31:04.433Z,28.20
2018-11-21T09:32:04.421Z,28.60
2018-11-21T09:33:04.400Z,28.80
2018-11-21T09:34:04.389Z,29.20
2018-11-21T09:35:04.490Z,28.60
2018-11-21T09:36:04.368Z,28.90
2018-11-21T09:37:04.362Z,28.20
2018-11-21T09:38:04.346Z,28.40
2018-11-21T09:39:04.342Z,27.90
2018-11-21T09:40:04.328Z,29.20
2018-11-21T09:41:04.585Z,30.10
2018-11-21T09:42:04.300Z,30.30
2018-11-21T09:43:04.290Z,28.20
2018-11-21T09:44:04.283Z,29.70
2018-11-21T09:45:04.272Z,29.60
2018-11-21T09:46:04.271Z,29.00
2018-11-21T09:47:04.301Z,28.80
2018-11-21T09:48:04.237Z,28.80
2018-11-21T09:49:04.238Z,28.10
2018-11-21T09:50:04.216Z,29.30
2018-11-21T09:51:04.205Z,27.70
2018-11-21T09:52:04.242Z,28.30
2018-11-21T09:53:04.184Z,28.10
2018-11-21T09:54:04.180Z,29.90
2018-11-21T09:55:04.214Z,29.10
2018-11-21T09:56:04.149Z,28.10
2018-11-21T09:57:04.144Z,29.80
2018-11-21T09:58:04.145Z,29.00
2018-11-21T09:59:04.122Z,28.50
2018-11-21T10:00:04.108Z,29.80
2018-11-21T10:01:04.200Z,28.60
2018-11-21T10:02:04.085Z,28.50
2018-11-21T10:03:04.079Z,30.40
2018-11-21T10:04:04.074Z,29.20
2018-11-21T10:05:04.058Z,29.10
2018-11-21T10:06:04.043Z,29.50
2018-11-21T10:07:04.080Z,28.90
2018-11-21T10:08:04.025Z,28.80
2018-11-21T10:09:04.321Z,28.70
2018-11-21T10:10:04.014Z,28.40
2018-11-21T10:11:03.987Z,29.10
2018-11-21T10:12:03.982Z,28.60
2018-11-21T10:13:03.970Z,28.40
2018-11-21T10:14:03.959Z,28.20
2018-11-21T10:15:04.003Z,27.20
2018-11-21T10:16:03.938Z,25.80
2018-11-21T10:17:03.938Z,26.50
2018-11-21T10:18:03.919Z,28.10
2018-11-21T10:19:03.905Z,26.20
2018-11-21T10:20:03.890Z,26.50
2018-11-21T10:21:03.934Z,25.40
2018-11-21T10:22:03.869Z,26.80
2018-11-21T10:23:03.898Z,24.80
2018-11-21T10:24:03.849Z,26.60
2018-11-21T10:25:03.839Z,26.40
2018-11-21T10:26:03.826Z,25.90
2018-11-21T10:27:03.862Z,28.40
2018-11-21T10:28:03.823Z,26.10
2018-11-21T10:29:03.800Z,25.70
2018-11-21T10:30:03.790Z,27.10
2018-11-21T10:31:03.774Z,24.80
2018-11-21T10:32:03.807Z,26.60
2018-11-21T10:33:03.801Z,25.00
2018-11-21T10:34:03.752Z,26.70
2018-11-21T10:35:03.736Z,26.90
2018-11-21T10:36:03.767Z,25.90
2018-11-21T10:37:03.737Z,28.40
2018-11-21T10:38:03.700Z,28.50
2018-11-21T10:39:03.690Z,28.00
2018-11-21T10:40:03.735Z,27.20
2018-11-21T10:41:03.665Z,27.90
2018-11-21T10:42:03.679Z,28.00
2018-11-21T10:43:03.648Z,27.90
2018-11-21T10:44:03.774Z,28.40
2018-11-21T10:45:03.631Z,29.00
2018-11-21T10:46:03.611Z,28.20
2018-11-21T10:47:03.601Z,28.60
2018-11-21T10:48:03.588Z,28.40
2018-11-21T10:49:03.584Z,27.00
2018-11-21T10:50:03.862Z,27.30
2018-11-21T10:51:03.569Z,28.00
2018-11-21T10:52:03.546Z,28.40
2018-11-21T10:53:03.542Z,27.70
2018-11-21T10:54:03.527Z,28.00
2018-11-21T10:55:03.516Z,27.20
2018-11-21T10:56:03.556Z,26.90
2018-11-21T10:57:03.523Z,26.60
2018-11-21T10:58:03.490Z,25.90
2018-11-21T10:59:03.472Z,27.70
2018-11-21T11:00:03.466Z,26.30
2018-11-21T11:01:03.500Z,27.30
2018-11-21T11:02:03.444Z,27.40
2018-11-21T11:03:03.428Z,25.50
2018-11-21T11:04:03.462Z,27.00
2018-11-21T11:05:03.414Z,28.00
2018-11-21T11:06:03.479Z,27.30
2018-11-21T11:07:03.394Z,28.10
2018-11-21T11:08:03.386Z,25.70
2018-11-21T11:09:03.364Z,26.30
2018-11-21T11:10:03.396Z,26.40
2018-11-21T11:11:03.363Z,27.10
2018-11-21T11:12:03.385Z,25.80
2018-11-21T11:13:03.329Z,26.90
2018-11-21T11:14:03.324Z,25.60
2018-11-21T11:15:03.298Z,26.00
2018-11-21T11:16:03.287Z,24.50
2018-11-21T11:17:03.289Z,24.70
2018-11-21T11:18:03.325Z,23.80
2018-11-21T11:19:03.256Z,23.70
2018-11-21T11:20:04.205Z,23.60
2018-11-21T11:21:03.245Z,23.40
2018-11-21T11:22:03.238Z,22.70
2018-11-21T11:23:03.212Z,23.80
2018-11-21T11:24:03.211Z,23.00
2018-11-21T11:25:03.286Z,22.20
2018-11-21T11:26:03.189Z,23.30
2018-11-21T11:27:03.169Z,22.50
2018-11-21T11:28:03.166Z,22.70
2018-11-21T11:29:03.153Z,22.40
2018-11-21T11:30:03.189Z,22.10
2018-11-21T11:31:03.174Z,22.70
2018-11-21T11:32:03.118Z,22.60
2018-11-21T11:33:03.107Z,22.80
2018-11-21T11:34:03.096Z,22.00
2018-11-21T11:35:03.083Z,23.40
2018-11-21T11:36:03.115Z,23.00
2018-11-21T11:37:03.056Z,22.30
2018-11-21T11:38:03.053Z,22.60
2018-11-21T11:39:03.036Z,22.20
2018-11-21T11:40:03.025Z,23.00
2018-11-21T11:41:03.066Z,21.20
2018-11-21T11:42:03.012Z,23.20
2018-11-21T11:43:03.007Z,23.90
2018-11-21T11:44:02.981Z,22.90
2018-11-21T11:45:02.975Z,21.30
2018-11-21T11:46:02.960Z,22.20
2018-11-21T11:47:03.005Z,22.10
2018-11-21T11:48:02.952Z,21.80
2018-11-21T11:49:02.929Z,22.20
2018-11-21T11:50:02.925Z,22.30
2018-11-21T11:51:02.910Z,22.90
2018-11-21T11:52:02.899Z,21.90
2018-11-21T11:53:02.941Z,21.50
2018-11-21T11:54:02.893Z,22.00
2018-11-21T11:55:02.876Z,21.90
2018-11-21T11:56:02.854Z,21.90
2018-11-21T11:57:02.847Z,21.40
2018-11-21T11:58:02.830Z,20.90
2018-11-21T11:59:02.872Z,22.10
2018-11-21T12:00:02.835Z,21.80
2018-11-21T12:01:02.798Z,21.80
2018-11-21T12:02:02.814Z,22.90
2018-11-21T12:03:02.782Z,22.50
2018-11-21T12:04:02.770Z,20.90
2018-11-21T12:05:02.983Z,22.40
2018-11-21T12:06:02.747Z,22.10
2018-11-21T12:07:02.735Z,21.70
2018-11-21T12:08:02.732Z,21.70
2018-11-21T12:09:02.712Z,23.30
2018-11-21T12:10:02.761Z,22.10
2018-11-21T12:11:02.760Z,21.00
2018-11-21T12:12:05.021Z,21.70
2018-11-21T12:13:02.672Z,21.00
2018-11-21T12:14:02.683Z,21.90
2018-11-21T12:15:02.650Z,21.00
2018-11-21T12:16:02.638Z,20.50
2018-11-21T12:17:02.677Z,22.00
2018-11-21T12:18:02.615Z,22.20
2018-11-21T12:19:02.604Z,22.20
2018-11-21T12:20:02.593Z,21.40
2018-11-21T12:21:02.584Z,22.10
2018-11-21T12:22:02.571Z,21.20
2018-11-21T12:23:02.854Z,22.80
2018-11-21T12:24:02.558Z,21.60
2018-11-21T12:25:02.533Z,21.80
2018-11-21T12:26:02.527Z,22.60
2018-11-21T12:27:02.513Z,22.20
2018-11-21T12:28:02.502Z,22.00
2018-11-21T12:29:02.544Z,22.10
2018-11-21T12:30:02.489Z,22.40
2018-11-21T12:31:02.482Z,21.80
2018-11-21T12:32:02.466Z,21.10
2018-11-21T12:33:02.497Z,21.80
2018-11-21T12:34:02.454Z,21.70
2018-11-21T12:35:02.439Z,22.50
2018-11-21T12:36:02.419Z,23.30
2018-11-21T12:37:02.437Z,22.50
2018-11-21T12:38:02.409Z,23.90
2018-11-21T12:39:02.430Z,22.90
2018-11-21T12:40:02.388Z,21.60
2018-11-21T12:41:02.361Z,22.00
2018-11-21T12:42:02.352Z,21.60
2018-11-21T12:43:02.396Z,21.00
2018-11-21T12:44:02.336Z,21.30
2018-11-21T12:45:02.321Z,21.30
2018-11-21T12:46:02.401Z,22.90
2018-11-21T12:47:02.297Z,21.30
2018-11-21T12:48:02.289Z,22.10
2018-11-21T12:49:02.504Z,22.40
2018-11-21T12:50:02.328Z,22.10
2018-11-21T12:51:02.470Z,23.20
2018-11-21T12:52:02.249Z,22.30